sensor_id;sensor_type;location;lat;lon;timestamp;P1;durP1;ratioP1;P2;durP2;ratioP2
56401;SDS011;42299;35.160;26.100;2023-12-29T00:00:42;10.10;;;6.22;;
56401;SDS011;42299;35.160;26.100;2023-12-29T00:06:06;12.20;;;8.75;;
56401;SDS011;42299;35.160;26.100;2023-12-29T00:11:29;13.95;;;6.88;;
56401;SDS011;42299;35.160;26.100;2023-12-29T00:16:51;17.00;;;9.07;;
56401;SDS011;42299;35.160;26.100;2023-12-29T00:22:19;11.57;;;8.10;;
56401;SDS011;42299;35.160;26.100;2023-12-29T00:27:41;11.75;;;5.97;;
56401;SDS011;42299;35.160;26.100;2023-12-29T00:33:05;11.38;;;7.35;;
56401;SDS011;42299;35.160;26.100;2023-12-29T00:38:29;11.13;;;6.25;;
56401;SDS011;42299;35.160;26.100;2023-12-29T00:43:52;16.73;;;8.98;;
56401;SDS011;42299;35.160;26.100;2023-12-29T00:49:15;15.45;;;9.00;;
56401;SDS011;42299;35.160;26.100;2023-12-29T00:54:39;15.95;;;9.93;;
56401;SDS011;42299;35.160;26.100;2023-12-29T01:00:04;31.45;;;16.55;;
56401;SDS011;42299;35.160;26.100;2023-12-29T01:05:28;21.55;;;9.85;;
56401;SDS011;42299;35.160;26.100;2023-12-29T01:10:53;33.47;;;21.25;;
56401;SDS011;42299;35.160;26.100;2023-12-29T01:16:15;21.40;;;9.88;;
56401;SDS011;42299;35.160;26.100;2023-12-29T01:21:37;17.00;;;9.70;;
56401;SDS011;42299;35.160;26.100;2023-12-29T01:27:02;19.38;;;10.95;;
56401;SDS011;42299;35.160;26.100;2023-12-29T01:32:25;7.78;;;5.65;;
56401;SDS011;42299;35.160;26.100;2023-12-29T01:37:48;9.55;;;6.40;;
56401;SDS011;42299;35.160;26.100;2023-12-29T01:43:12;17.48;;;8.07;;
56401;SDS011;42299;35.160;26.100;2023-12-29T01:48:35;9.52;;;5.15;;
56401;SDS011;42299;35.160;26.100;2023-12-29T01:53:59;9.32;;;5.82;;
56401;SDS011;42299;35.160;26.100;2023-12-29T01:59:23;7.90;;;4.70;;
56401;SDS011;42299;35.160;26.100;2023-12-29T02:04:47;12.30;;;10.48;;
56401;SDS011;42299;35.160;26.100;2023-12-29T02:10:09;12.18;;;6.78;;
56401;SDS011;42299;35.160;26.100;2023-12-29T02:15:38;15.70;;;10.73;;
56401;SDS011;42299;35.160;26.100;2023-12-29T02:21:00;28.17;;;14.98;;
56401;SDS011;42299;35.160;26.100;2023-12-29T02:26:26;15.45;;;9.50;;
56401;SDS011;42299;35.160;26.100;2023-12-29T02:31:55;13.25;;;9.73;;
56401;SDS011;42299;35.160;26.100;2023-12-29T02:37:22;19.88;;;10.23;;
56401;SDS011;42299;35.160;26.100;2023-12-29T02:42:48;9.27;;;5.45;;
56401;SDS011;42299;35.160;26.100;2023-12-29T02:48:11;8.57;;;4.57;;
56401;SDS011;42299;35.160;26.100;2023-12-29T02:53:34;9.10;;;4.90;;
56401;SDS011;42299;35.160;26.100;2023-12-29T02:58:59;9.88;;;5.30;;
56401;SDS011;42299;35.160;26.100;2023-12-29T03:04:21;7.63;;;5.45;;
56401;SDS011;42299;35.160;26.100;2023-12-29T03:09:46;8.15;;;6.32;;
56401;SDS011;42299;35.160;26.100;2023-12-29T03:15:10;14.13;;;7.72;;
56401;SDS011;42299;35.160;26.100;2023-12-29T03:20:32;13.52;;;5.82;;
56401;SDS011;42299;35.160;26.100;2023-12-29T03:25:55;9.82;;;4.97;;
56401;SDS011;42299;35.160;26.100;2023-12-29T03:31:19;10.35;;;6.15;;
56401;SDS011;42299;35.160;26.100;2023-12-29T03:36:42;9.13;;;5.47;;
56401;SDS011;42299;35.160;26.100;2023-12-29T03:42:05;6.57;;;4.45;;
56401;SDS011;42299;35.160;26.100;2023-12-29T03:47:30;8.93;;;4.78;;
56401;SDS011;42299;35.160;26.100;2023-12-29T03:52:54;9.40;;;5.85;;
56401;SDS011;42299;35.160;26.100;2023-12-29T03:58:16;10.40;;;6.05;;
56401;SDS011;42299;35.160;26.100;2023-12-29T04:03:41;9.40;;;5.57;;
56401;SDS011;42299;35.160;26.100;2023-12-29T04:09:04;10.48;;;5.60;;
56401;SDS011;42299;35.160;26.100;2023-12-29T04:14:26;14.25;;;6.90;;
56401;SDS011;42299;35.160;26.100;2023-12-29T04:19:51;9.60;;;5.40;;
56401;SDS011;42299;35.160;26.100;2023-12-29T04:25:14;10.10;;;5.13;;
56401;SDS011;42299;35.160;26.100;2023-12-29T04:30:37;11.68;;;6.70;;
56401;SDS011;42299;35.160;26.100;2023-12-29T04:36:03;10.40;;;5.90;;
56401;SDS011;42299;35.160;26.100;2023-12-29T04:41:26;9.57;;;5.15;;
56401;SDS011;42299;35.160;26.100;2023-12-29T04:46:48;8.68;;;4.78;;
56401;SDS011;42299;35.160;26.100;2023-12-29T04:52:12;8.60;;;5.45;;
56401;SDS011;42299;35.160;26.100;2023-12-29T04:57:34;7.60;;;4.13;;
56401;SDS011;42299;35.160;26.100;2023-12-29T05:02:57;7.38;;;4.10;;
56401;SDS011;42299;35.160;26.100;2023-12-29T05:08:21;12.38;;;5.60;;
56401;SDS011;42299;35.160;26.100;2023-12-29T05:13:43;12.90;;;6.75;;
56401;SDS011;42299;35.160;26.100;2023-12-29T05:19:07;21.17;;;13.40;;
56401;SDS011;42299;35.160;26.100;2023-12-29T05:24:31;17.60;;;12.82;;
56401;SDS011;42299;35.160;26.100;2023-12-29T05:29:53;14.43;;;9.93;;
56401;SDS011;42299;35.160;26.100;2023-12-29T05:35:16;17.67;;;11.60;;
56401;SDS011;42299;35.160;26.100;2023-12-29T05:40:40;9.75;;;7.15;;
56401;SDS011;42299;35.160;26.100;2023-12-29T05:46:08;16.73;;;8.48;;
56401;SDS011;42299;35.160;26.100;2023-12-29T05:51:32;8.57;;;5.57;;
56401;SDS011;42299;35.160;26.100;2023-12-29T05:56:56;54.88;;;33.65;;
56401;SDS011;42299;35.160;26.100;2023-12-29T06:02:20;45.63;;;32.10;;
56401;SDS011;42299;35.160;26.100;2023-12-29T06:07:42;36.85;;;24.98;;
56401;SDS011;42299;35.160;26.100;2023-12-29T06:13:07;53.65;;;38.28;;
56401;SDS011;42299;35.160;26.100;2023-12-29T06:18:29;111.78;;;82.35;;
56401;SDS011;42299;35.160;26.100;2023-12-29T06:23:52;91.72;;;69.25;;
56401;SDS011;42299;35.160;26.100;2023-12-29T06:29:16;95.25;;;74.18;;
56401;SDS011;42299;35.160;26.100;2023-12-29T06:34:39;73.07;;;60.92;;
56401;SDS011;42299;35.160;26.100;2023-12-29T06:40:02;39.85;;;31.73;;
56401;SDS011;42299;35.160;26.100;2023-12-29T06:45:28;20.35;;;16.38;;
56401;SDS011;42299;35.160;26.100;2023-12-29T06:50:51;8.93;;;5.20;;
56401;SDS011;42299;35.160;26.100;2023-12-29T06:56:14;10.93;;;5.68;;
56401;SDS011;42299;35.160;26.100;2023-12-29T07:01:39;5.93;;;5.18;;
56401;SDS011;42299;35.160;26.100;2023-12-29T07:07:02;10.13;;;5.28;;
56401;SDS011;42299;35.160;26.100;2023-12-29T07:12:25;7.68;;;4.30;;
56401;SDS011;42299;35.160;26.100;2023-12-29T07:17:49;7.65;;;4.70;;
56401;SDS011;42299;35.160;26.100;2023-12-29T07:23:11;8.75;;;4.47;;
56401;SDS011;42299;35.160;26.100;2023-12-29T07:28:34;8.18;;;4.50;;
56401;SDS011;42299;35.160;26.100;2023-12-29T07:33:59;6.82;;;4.35;;
56401;SDS011;42299;35.160;26.100;2023-12-29T07:39:21;7.15;;;4.55;;
56401;SDS011;42299;35.160;26.100;2023-12-29T07:44:44;10.40;;;5.25;;
56401;SDS011;42299;35.160;26.100;2023-12-29T07:50:09;6.95;;;5.60;;
56401;SDS011;42299;35.160;26.100;2023-12-29T07:55:31;10.05;;;4.70;;
56401;SDS011;42299;35.160;26.100;2023-12-29T08:00:55;9.18;;;4.40;;
56401;SDS011;42299;35.160;26.100;2023-12-29T08:06:19;7.32;;;4.30;;
56401;SDS011;42299;35.160;26.100;2023-12-29T08:11:41;6.53;;;4.95;;
56401;SDS011;42299;35.160;26.100;2023-12-29T08:17:04;12.50;;;6.47;;
56401;SDS011;42299;35.160;26.100;2023-12-29T08:22:30;11.10;;;6.57;;
56401;SDS011;42299;35.160;26.100;2023-12-29T08:27:53;13.95;;;11.18;;
56401;SDS011;42299;35.160;26.100;2023-12-29T08:33:16;9.73;;;6.65;;
56401;SDS011;42299;35.160;26.100;2023-12-29T08:38:40;23.38;;;16.80;;
56401;SDS011;42299;35.160;26.100;2023-12-29T08:44:05;10.00;;;5.65;;
56401;SDS011;42299;35.160;26.100;2023-12-29T08:49:28;8.45;;;4.60;;
56401;SDS011;42299;35.160;26.100;2023-12-29T08:54:52;9.23;;;6.05;;
56401;SDS011;42299;35.160;26.100;2023-12-29T09:00:15;5.13;;;3.70;;
56401;SDS011;42299;35.160;26.100;2023-12-29T09:05:38;6.53;;;4.00;;
56401;SDS011;42299;35.160;26.100;2023-12-29T09:11:03;4.97;;;3.63;;
56401;SDS011;42299;35.160;26.100;2023-12-29T09:16:27;7.00;;;4.40;;
56401;SDS011;42299;35.160;26.100;2023-12-29T09:21:50;13.73;;;9.60;;
56401;SDS011;42299;35.160;26.100;2023-12-29T09:27:14;11.05;;;7.72;;
56401;SDS011;42299;35.160;26.100;2023-12-29T09:32:37;7.07;;;5.03;;
56401;SDS011;42299;35.160;26.100;2023-12-29T09:38:00;9.73;;;6.32;;
56401;SDS011;42299;35.160;26.100;2023-12-29T09:43:25;8.98;;;6.05;;
56401;SDS011;42299;35.160;26.100;2023-12-29T09:48:47;10.05;;;5.15;;
56401;SDS011;42299;35.160;26.100;2023-12-29T09:54:13;6.78;;;3.90;;
56401;SDS011;42299;35.160;26.100;2023-12-29T09:59:37;7.32;;;4.22;;
56401;SDS011;42299;35.160;26.100;2023-12-29T10:05:02;7.93;;;4.47;;
56401;SDS011;42299;35.160;26.100;2023-12-29T10:10:26;7.55;;;4.22;;
56401;SDS011;42299;35.160;26.100;2023-12-29T10:15:53;10.85;;;6.13;;
56401;SDS011;42299;35.160;26.100;2023-12-29T10:21:26;6.35;;;3.85;;
56401;SDS011;42299;35.160;26.100;2023-12-29T10:26:52;30.53;;;20.13;;
56401;SDS011;42299;35.160;26.100;2023-12-29T10:32:16;11.57;;;6.85;;
56401;SDS011;42299;35.160;26.100;2023-12-29T10:37:39;9.15;;;7.75;;
56401;SDS011;42299;35.160;26.100;2023-12-29T10:43:02;19.40;;;12.05;;
56401;SDS011;42299;35.160;26.100;2023-12-29T10:48:28;5.20;;;3.80;;
56401;SDS011;42299;35.160;26.100;2023-12-29T10:53:54;10.82;;;6.72;;
56401;SDS011;42299;35.160;26.100;2023-12-29T10:59:18;6.03;;;4.28;;
56401;SDS011;42299;35.160;26.100;2023-12-29T11:04:42;8.68;;;6.15;;
56401;SDS011;42299;35.160;26.100;2023-12-29T11:10:06;6.35;;;5.57;;
56401;SDS011;42299;35.160;26.100;2023-12-29T11:15:34;7.00;;;5.45;;
56401;SDS011;42299;35.160;26.100;2023-12-29T11:20:58;24.45;;;15.38;;
56401;SDS011;42299;35.160;26.100;2023-12-29T11:26:21;15.65;;;9.90;;
56401;SDS011;42299;35.160;26.100;2023-12-29T11:31:45;8.15;;;5.65;;
56401;SDS011;42299;35.160;26.100;2023-12-29T11:37:15;8.40;;;5.93;;
56401;SDS011;42299;35.160;26.100;2023-12-29T11:42:49;9.32;;;5.82;;
56401;SDS011;42299;35.160;26.100;2023-12-29T11:48:14;7.65;;;4.32;;
56401;SDS011;42299;35.160;26.100;2023-12-29T11:54:23;5.95;;;4.70;;
56401;SDS011;42299;35.160;26.100;2023-12-29T11:59:47;7.55;;;5.13;;
56401;SDS011;42299;35.160;26.100;2023-12-29T12:05:09;11.65;;;5.70;;
56401;SDS011;42299;35.160;26.100;2023-12-29T12:10:35;7.05;;;4.70;;
56401;SDS011;42299;35.160;26.100;2023-12-29T12:16:00;7.33;;;4.77;;
56401;SDS011;42299;35.160;26.100;2023-12-29T12:21:22;7.15;;;4.65;;
56401;SDS011;42299;35.160;26.100;2023-12-29T12:26:48;6.25;;;4.68;;
56401;SDS011;42299;35.160;26.100;2023-12-29T12:32:11;6.47;;;4.50;;
56401;SDS011;42299;35.160;26.100;2023-12-29T12:37:33;9.82;;;5.88;;
56401;SDS011;42299;35.160;26.100;2023-12-29T12:43:00;8.52;;;5.03;;
56401;SDS011;42299;35.160;26.100;2023-12-29T12:48:24;8.30;;;4.57;;
56401;SDS011;42299;35.160;26.100;2023-12-29T12:53:55;6.95;;;5.00;;
56401;SDS011;42299;35.160;26.100;2023-12-29T12:59:19;8.48;;;5.60;;
56401;SDS011;42299;35.160;26.100;2023-12-29T13:04:43;7.97;;;5.07;;
56401;SDS011;42299;35.160;26.100;2023-12-29T13:10:06;10.23;;;7.70;;
56401;SDS011;42299;35.160;26.100;2023-12-29T13:15:31;10.70;;;5.25;;
56401;SDS011;42299;35.160;26.100;2023-12-29T13:20:53;7.05;;;5.68;;
56401;SDS011;42299;35.160;26.100;2023-12-29T13:26:16;9.10;;;5.60;;
56401;SDS011;42299;35.160;26.100;2023-12-29T13:31:43;9.35;;;6.57;;
56401;SDS011;42299;35.160;26.100;2023-12-29T13:37:07;9.20;;;6.07;;
56401;SDS011;42299;35.160;26.100;2023-12-29T13:42:40;8.18;;;5.50;;
56401;SDS011;42299;35.160;26.100;2023-12-29T13:48:07;11.00;;;6.28;;
56401;SDS011;42299;35.160;26.100;2023-12-29T13:53:31;9.07;;;6.03;;
56401;SDS011;42299;35.160;26.100;2023-12-29T13:58:54;9.07;;;5.53;;
56401;SDS011;42299;35.160;26.100;2023-12-29T14:04:19;10.30;;;7.32;;
56401;SDS011;42299;35.160;26.100;2023-12-29T14:09:41;8.82;;;6.18;;
56401;SDS011;42299;35.160;26.100;2023-12-29T14:15:04;7.70;;;5.70;;
56401;SDS011;42299;35.160;26.100;2023-12-29T14:20:36;10.75;;;7.22;;
56401;SDS011;42299;35.160;26.100;2023-12-29T14:26:01;8.63;;;7.30;;
56401;SDS011;42299;35.160;26.100;2023-12-29T14:31:24;7.80;;;6.80;;
56401;SDS011;42299;35.160;26.100;2023-12-29T14:36:48;8.02;;;6.38;;
56401;SDS011;42299;35.160;26.100;2023-12-29T14:42:11;10.38;;;6.55;;
56401;SDS011;42299;35.160;26.100;2023-12-29T14:47:34;11.68;;;6.28;;
56401;SDS011;42299;35.160;26.100;2023-12-29T14:52:59;10.05;;;7.20;;
56401;SDS011;42299;35.160;26.100;2023-12-29T14:58:22;14.55;;;8.82;;
56401;SDS011;42299;35.160;26.100;2023-12-29T15:03:44;16.30;;;10.85;;
56401;SDS011;42299;35.160;26.100;2023-12-29T15:09:08;14.02;;;11.00;;
56401;SDS011;42299;35.160;26.100;2023-12-29T15:14:32;16.35;;;11.32;;
56401;SDS011;42299;35.160;26.100;2023-12-29T15:19:54;17.65;;;11.90;;
56401;SDS011;42299;35.160;26.100;2023-12-29T15:25:20;13.52;;;10.73;;
56401;SDS011;42299;35.160;26.100;2023-12-29T15:30:43;12.40;;;9.90;;
56401;SDS011;42299;35.160;26.100;2023-12-29T15:36:07;13.90;;;12.40;;
56401;SDS011;42299;35.160;26.100;2023-12-29T15:41:36;37.15;;;18.65;;
56401;SDS011;42299;35.160;26.100;2023-12-29T15:46:58;45.95;;;29.60;;
56401;SDS011;42299;35.160;26.100;2023-12-29T15:52:20;31.35;;;21.73;;
56401;SDS011;42299;35.160;26.100;2023-12-29T15:57:48;34.55;;;30.88;;
56401;SDS011;42299;35.160;26.100;2023-12-29T16:03:11;43.45;;;38.30;;
56401;SDS011;42299;35.160;26.100;2023-12-29T16:08:33;47.05;;;42.28;;
56401;SDS011;42299;35.160;26.100;2023-12-29T16:13:57;22.42;;;18.27;;
56401;SDS011;42299;35.160;26.100;2023-12-29T16:19:20;19.10;;;13.70;;
56401;SDS011;42299;35.160;26.100;2023-12-29T16:24:42;20.70;;;14.90;;
56401;SDS011;42299;35.160;26.100;2023-12-29T16:30:08;12.45;;;9.90;;
56401;SDS011;42299;35.160;26.100;2023-12-29T16:35:30;13.57;;;8.88;;
56401;SDS011;42299;35.160;26.100;2023-12-29T16:40:53;10.15;;;7.70;;
56401;SDS011;42299;35.160;26.100;2023-12-29T16:46:17;15.43;;;9.52;;
56401;SDS011;42299;35.160;26.100;2023-12-29T16:51:40;19.23;;;13.75;;
56401;SDS011;42299;35.160;26.100;2023-12-29T16:57:03;17.05;;;14.70;;
56401;SDS011;42299;35.160;26.100;2023-12-29T17:02:28;22.92;;;19.80;;
56401;SDS011;42299;35.160;26.100;2023-12-29T17:07:51;15.25;;;9.07;;
56401;SDS011;42299;35.160;26.100;2023-12-29T17:13:13;17.05;;;11.00;;
56401;SDS011;42299;35.160;26.100;2023-12-29T17:18:37;17.70;;;9.05;;
56401;SDS011;42299;35.160;26.100;2023-12-29T17:24:00;12.45;;;9.13;;
56401;SDS011;42299;35.160;26.100;2023-12-29T17:29:22;11.35;;;8.48;;
56401;SDS011;42299;35.160;26.100;2023-12-29T17:34:48;18.20;;;11.85;;
56401;SDS011;42299;35.160;26.100;2023-12-29T17:40:11;13.80;;;12.43;;
56401;SDS011;42299;35.160;26.100;2023-12-29T17:45:33;15.27;;;10.90;;
56401;SDS011;42299;35.160;26.100;2023-12-29T17:50:57;16.77;;;10.85;;
56401;SDS011;42299;35.160;26.100;2023-12-29T17:56:20;13.43;;;9.32;;
56401;SDS011;42299;35.160;26.100;2023-12-29T18:01:42;14.68;;;9.40;;
56401;SDS011;42299;35.160;26.100;2023-12-29T18:07:07;13.23;;;9.50;;
56401;SDS011;42299;35.160;26.100;2023-12-29T18:12:29;13.52;;;8.70;;
56401;SDS011;42299;35.160;26.100;2023-12-29T18:17:52;9.95;;;8.20;;
56401;SDS011;42299;35.160;26.100;2023-12-29T18:23:16;14.30;;;12.27;;
56401;SDS011;42299;35.160;26.100;2023-12-29T18:28:38;18.58;;;11.90;;
56401;SDS011;42299;35.160;26.100;2023-12-29T18:34:03;19.10;;;15.43;;
56401;SDS011;42299;35.160;26.100;2023-12-29T18:39:28;15.27;;;11.00;;
56401;SDS011;42299;35.160;26.100;2023-12-29T18:44:52;11.77;;;9.73;;
56401;SDS011;42299;35.160;26.100;2023-12-29T18:50:14;18.45;;;10.98;;
56401;SDS011;42299;35.160;26.100;2023-12-29T18:55:39;20.48;;;11.68;;
56401;SDS011;42299;35.160;26.100;2023-12-29T19:01:05;38.45;;;23.88;;
56401;SDS011;42299;35.160;26.100;2023-12-29T19:06:27;23.90;;;16.85;;
56401;SDS011;42299;35.160;26.100;2023-12-29T19:11:51;17.25;;;12.43;;
56401;SDS011;42299;35.160;26.100;2023-12-29T19:17:13;34.28;;;24.63;;
56401;SDS011;42299;35.160;26.100;2023-12-29T19:22:39;14.80;;;12.98;;
56401;SDS011;42299;35.160;26.100;2023-12-29T19:28:05;26.83;;;18.92;;
56401;SDS011;42299;35.160;26.100;2023-12-29T19:33:28;20.63;;;14.05;;
56401;SDS011;42299;35.160;26.100;2023-12-29T19:38:50;29.77;;;21.38;;
56401;SDS011;42299;35.160;26.100;2023-12-29T19:44:16;54.53;;;39.10;;
56401;SDS011;42299;35.160;26.100;2023-12-29T19:49:40;18.38;;;13.50;;
56401;SDS011;42299;35.160;26.100;2023-12-29T19:55:02;17.58;;;12.10;;
56401;SDS011;42299;35.160;26.100;2023-12-29T20:00:27;28.02;;;22.35;;
56401;SDS011;42299;35.160;26.100;2023-12-29T20:05:49;16.83;;;10.18;;
56401;SDS011;42299;35.160;26.100;2023-12-29T20:11:12;18.55;;;12.40;;
56401;SDS011;42299;35.160;26.100;2023-12-29T20:16:37;21.00;;;17.38;;
56401;SDS011;42299;35.160;26.100;2023-12-29T20:22:00;16.02;;;12.93;;
56401;SDS011;42299;35.160;26.100;2023-12-29T20:27:22;12.77;;;9.90;;
56401;SDS011;42299;35.160;26.100;2023-12-29T20:32:46;10.35;;;8.35;;
56401;SDS011;42299;35.160;26.100;2023-12-29T20:38:09;18.73;;;13.30;;
56401;SDS011;42299;35.160;26.100;2023-12-29T20:43:32;16.95;;;11.90;;
56401;SDS011;42299;35.160;26.100;2023-12-29T20:48:56;17.00;;;10.77;;
56401;SDS011;42299;35.160;26.100;2023-12-29T20:54:18;17.50;;;10.45;;
56401;SDS011;42299;35.160;26.100;2023-12-29T20:59:42;16.70;;;10.23;;
56401;SDS011;42299;35.160;26.100;2023-12-29T21:05:06;13.38;;;9.00;;
56401;SDS011;42299;35.160;26.100;2023-12-29T21:10:30;12.00;;;9.35;;
56401;SDS011;42299;35.160;26.100;2023-12-29T21:15:53;11.10;;;7.88;;
56401;SDS011;42299;35.160;26.100;2023-12-29T21:21:17;13.18;;;8.55;;
56401;SDS011;42299;35.160;26.100;2023-12-29T21:26:40;10.80;;;9.07;;
56401;SDS011;42299;35.160;26.100;2023-12-29T21:32:03;14.30;;;8.25;;
56401;SDS011;42299;35.160;26.100;2023-12-29T21:37:27;9.10;;;6.57;;
56401;SDS011;42299;35.160;26.100;2023-12-29T21:42:50;12.77;;;8.43;;
56401;SDS011;42299;35.160;26.100;2023-12-29T21:48:15;14.20;;;8.35;;
56401;SDS011;42299;35.160;26.100;2023-12-29T21:53:39;12.02;;;9.00;;
56401;SDS011;42299;35.160;26.100;2023-12-29T21:59:02;11.60;;;7.93;;
56401;SDS011;42299;35.160;26.100;2023-12-29T22:04:24;12.48;;;8.27;;
56401;SDS011;42299;35.160;26.100;2023-12-29T22:09:48;26.27;;;14.95;;
56401;SDS011;42299;35.160;26.100;2023-12-29T22:15:11;17.67;;;12.30;;
56401;SDS011;42299;35.160;26.100;2023-12-29T22:20:34;42.63;;;34.83;;
56401;SDS011;42299;35.160;26.100;2023-12-29T22:26:00;12.02;;;9.40;;
56401;SDS011;42299;35.160;26.100;2023-12-29T22:31:23;13.20;;;9.00;;
56401;SDS011;42299;35.160;26.100;2023-12-29T22:36:45;12.65;;;9.90;;
56401;SDS011;42299;35.160;26.100;2023-12-29T22:42:09;11.10;;;7.82;;
56401;SDS011;42299;35.160;26.100;2023-12-29T22:47:31;11.32;;;7.28;;
56401;SDS011;42299;35.160;26.100;2023-12-29T22:52:54;11.00;;;7.55;;
56401;SDS011;42299;35.160;26.100;2023-12-29T22:58:19;10.73;;;7.05;;
56401;SDS011;42299;35.160;26.100;2023-12-29T23:03:42;10.20;;;7.25;;
56401;SDS011;42299;35.160;26.100;2023-12-29T23:09:04;13.07;;;9.70;;
56401;SDS011;42299;35.160;26.100;2023-12-29T23:14:28;11.73;;;8.75;;
56401;SDS011;42299;35.160;26.100;2023-12-29T23:19:52;13.90;;;8.80;;
56401;SDS011;42299;35.160;26.100;2023-12-29T23:25:14;11.88;;;7.40;;
56401;SDS011;42299;35.160;26.100;2023-12-29T23:30:39;9.45;;;6.65;;
56401;SDS011;42299;35.160;26.100;2023-12-29T23:36:01;11.48;;;6.28;;
56401;SDS011;42299;35.160;26.100;2023-12-29T23:41:24;10.07;;;6.28;;
56401;SDS011;42299;35.160;26.100;2023-12-29T23:46:48;8.43;;;6.65;;
56401;SDS011;42299;35.160;26.100;2023-12-29T23:52:10;8.73;;;7.13;;
56401;SDS011;42299;35.160;26.100;2023-12-29T23:57:36;8.73;;;6.38;;
